Aérodrome :
LOGIN :

S'inscrire | Disclaimer

   EN    FR    IT 

 










Légende :    VFR   VFR Marginal   IFR   IFR Intensif   IFR Très Intensif
Visi : 
Plafond : 
>= 8 km
>= 3000ft
5 à 8 km
1000 à 3000 ft
1500m à 5 km
500 à 1000 ft
800 à 1500m
200 à 500 ft
< 800m
< 200 ft
Symboles :   Orages  Brouillard  Fortes neiges  Fortes précipitations  Vent > 20 kt
SIGMETs :   Divers  Orages  Givrage  Turbulence  Onde Orograph.  Cendres Volcan.







- Altitude de l'aérodrome : 1416 ft
- Code IATA : ZRH


LSZH - Zurich

DERNIER METAR :
  • 270120Z 00000KT CAVOK 17/16 Q1013 NOSIG

METARs EXPIRÉS :
  • 270050Z 07003KT 010V110 9999 FEW012 BKN120 18/16 Q1013 NOSIG
  • 262350Z 11005KT 9999 FEW012 BKN100 18/17 Q1013 NOSIG
  • 262320Z VRB02KT 9999 VCSH FEW014 BKN110 18/17 Q1014 NOSIG
  • 262250Z 12004KT 090V170 9999 VCSH FEW050 BKN110 18/17 Q1014 NOSIG

TAF TAF LSZH
Valide du 27 à 00h jusqu'au 28 à 06h UTC


262325Z 2700/2806 14005KT 9999 FEW050 BKN110 TX30/2715Z TN17/2704Z TN17/2804Z
TEMPO 2721/2806 4500 SHRA BKN050TCU
PROB40
TEMPO 2721/2803 25015G25KT 3000 TSRA SCT040CB
ATIS : +41 43 816 2295 (DEP) +41 43 816 2294 (ARR)
Pas de NOTAMs connus pour ce terrain.



MET'MAP, la Météo Aéronautique d'un coup d'oeil ! - Copyright ORBIFLY Décembre 2007 - Disclaimer

ORBIFLY MET'MAP TEAM :

Programmation & Développement : Alexandra Zaïnal
Conception & Développement : Baudouin d'Aumeries
Co-Programmation & Développement : Marc-Olivier Méhu
Soutien technique & logistique : Manuel Goepfert

Contact : metmap@orbifly.com




SOURCES & CREDITS :

   NOAA